createdAt,value
2023-11-28T00:00:32.974Z,-0.65
2023-11-28T00:02:59.707Z,-0.47
2023-11-28T00:05:26.684Z,-0.64
2023-11-28T00:07:53.336Z,-0.73
2023-11-28T00:10:19.934Z,-0.72
2023-11-28T00:12:46.463Z,-0.54
2023-11-28T00:15:13.094Z,-0.72
2023-11-28T00:17:39.915Z,-0.73
2023-11-28T00:20:07.424Z,-0.64
2023-11-28T00:22:34.166Z,-0.75
2023-11-28T00:25:00.999Z,-0.77
2023-11-28T00:27:27.629Z,-0.66
2023-11-28T00:29:54.196Z,-0.66
2023-11-28T00:32:20.748Z,-0.63
2023-11-28T00:34:49.669Z,-0.61
2023-11-28T00:37:16.489Z,-0.43
2023-11-28T00:39:43.318Z,-0.39
2023-11-28T00:42:10.154Z,-0.63
2023-11-28T00:44:36.687Z,-0.21
2023-11-28T00:47:03.376Z,-0.35
2023-11-28T00:49:30.016Z,-0.77
2023-11-28T00:51:56.574Z,-0.55
2023-11-28T00:54:23.077Z,-0.40
2023-11-28T00:56:51.242Z,-0.38
2023-11-28T00:59:17.803Z,-0.54
2023-11-28T01:01:45.029Z,-0.65
2023-11-28T01:04:11.744Z,-0.84
2023-11-28T01:06:38.322Z,-0.81
2023-11-28T01:09:06.064Z,-0.72
2023-11-28T01:11:32.482Z,-0.64
2023-11-28T01:13:59.016Z,-0.69
2023-11-28T01:16:25.965Z,-0.63
2023-11-28T01:18:52.626Z,-1.12
2023-11-28T01:21:19.034Z,-0.76
2023-11-28T01:23:45.645Z,-0.93
2023-11-28T01:26:12.126Z,-0.94
2023-11-28T01:28:38.681Z,-0.70
2023-11-28T01:31:06.566Z,-0.81
2023-11-28T01:33:33.569Z,-0.90
2023-11-28T01:36:00.186Z,-0.77
2023-11-28T01:38:26.780Z,-0.90
2023-11-28T01:40:53.221Z,-0.88
2023-11-28T01:43:29.876Z,-0.85
2023-11-28T01:45:58.106Z,-0.93
2023-11-28T01:48:24.928Z,-0.91
2023-11-28T01:50:52.071Z,-0.86
2023-11-28T01:53:19.173Z,-0.89
2023-11-28T01:55:46.069Z,-0.93
2023-11-28T01:58:13.276Z,-0.85
2023-11-28T02:00:40.011Z,-0.46
2023-11-28T02:03:10.275Z,-0.91
2023-11-28T02:05:36.970Z,-0.78
2023-11-28T02:08:05.104Z,-0.72
2023-11-28T02:10:35.078Z,-0.97
2023-11-28T02:13:01.626Z,-1.03
2023-11-28T02:15:44.162Z,-0.80
2023-11-28T02:18:11.618Z,-1.14
2023-11-28T02:20:41.899Z,-1.19
2023-11-28T02:23:09.608Z,-1.20
2023-11-28T02:25:41.511Z,-1.26
2023-11-28T02:28:08.037Z,-1.04
2023-11-28T02:46:50.333Z,-1.92
2023-11-28T02:49:16.960Z,-1.80
2023-11-28T02:51:43.463Z,-1.48
2023-11-28T02:54:09.910Z,-1.41
2023-11-28T02:56:36.481Z,-1.55
2023-11-28T02:59:03.000Z,-1.35
2023-11-28T03:01:29.689Z,-1.58
2023-11-28T03:03:56.978Z,-1.39
2023-11-28T03:06:23.515Z,-1.50
2023-11-28T03:08:49.951Z,-1.15
2023-11-28T03:11:16.448Z,-1.64
2023-11-28T03:13:42.935Z,-1.20
2023-11-28T03:16:10.054Z,-1.52
2023-11-28T03:18:36.576Z,-1.29
2023-11-28T03:21:03.023Z,-1.32
2023-11-28T03:23:29.532Z,-1.41
2023-11-28T03:25:57.271Z,-1.33
2023-11-28T03:28:23.860Z,-1.44
2023-11-28T03:30:50.464Z,-1.25
2023-11-28T03:33:17.113Z,-1.38
2023-11-28T03:35:44.049Z,-1.13
2023-11-28T03:38:10.892Z,-1.28
2023-11-28T03:40:37.558Z,-1.25
2023-11-28T03:43:04.211Z,-1.40
2023-11-28T03:45:30.730Z,-1.23
2023-11-28T03:47:57.182Z,-1.13
2023-11-28T03:50:23.731Z,-1.53
2023-11-28T03:52:50.376Z,-1.15
2023-11-28T03:55:16.903Z,-1.61
2023-11-28T03:57:43.299Z,-1.15
2023-11-28T04:00:11.520Z,-1.23
2023-11-28T04:02:38.290Z,-1.13
2023-11-28T04:05:07.733Z,-1.20
2023-11-28T04:07:34.331Z,-1.08
2023-11-28T04:10:00.892Z,-1.01
2023-11-28T04:12:27.792Z,-1.09
2023-11-28T04:14:54.294Z,-0.98
2023-11-28T04:17:21.093Z,-1.12
2023-11-28T04:19:47.800Z,-1.69
2023-11-28T04:22:14.871Z,-1.33
2023-11-28T04:24:41.596Z,-1.32
2023-11-28T04:27:08.116Z,-1.27
2023-11-28T04:29:34.636Z,-0.98
2023-11-28T04:32:01.390Z,-1.38
2023-11-28T04:34:28.143Z,-1.21
2023-11-28T04:36:55.088Z,-1.29
2023-11-28T04:39:21.753Z,-1.45
2023-11-28T04:41:54.130Z,-1.26
2023-11-28T04:44:20.705Z,-1.40
2023-11-28T04:46:47.284Z,-1.14
2023-11-28T04:49:15.221Z,-1.15
2023-11-28T04:51:41.793Z,-1.66
2023-11-28T04:54:08.616Z,-1.33
2023-11-28T04:56:35.401Z,-1.72
2023-11-28T04:59:02.039Z,-1.63
2023-11-28T05:01:28.588Z,-1.45
2023-11-28T05:03:55.193Z,-1.61
2023-11-28T05:06:22.131Z,-1.79
2023-11-28T05:08:48.980Z,-1.55
2023-11-28T05:11:15.574Z,-1.79
2023-11-28T05:13:48.272Z,-1.47
2023-11-28T05:16:15.027Z,-1.51
2023-11-28T05:18:41.780Z,-1.47
2023-11-28T05:21:11.449Z,-1.69
2023-11-28T05:23:39.690Z,-1.56
2023-11-28T05:26:13.240Z,-1.41
2023-11-28T05:28:39.935Z,-1.70
2023-11-28T05:31:06.671Z,-1.61
2023-11-28T05:33:33.193Z,-1.64
2023-11-28T05:35:59.647Z,-1.45
2023-11-28T05:38:26.121Z,-1.31
2023-11-28T05:40:52.600Z,-1.07
2023-11-28T05:43:19.401Z,-1.43
2023-11-28T05:45:45.891Z,-1.21
2023-11-28T05:48:15.425Z,-1.09
2023-11-28T05:50:41.964Z,-1.48
2023-11-28T05:53:08.424Z,-1.37
2023-11-28T05:55:34.974Z,-1.34
2023-11-28T05:58:01.553Z,-1.19
2023-11-28T06:00:28.618Z,-1.67
2023-11-28T06:02:55.332Z,-1.46
2023-11-28T06:05:22.063Z,-1.54
2023-11-28T06:07:49.014Z,-1.86
2023-11-28T06:10:16.553Z,-1.27
2023-11-28T06:12:43.128Z,-1.41
2023-11-28T06:15:09.656Z,-1.20
2023-11-28T06:21:25.084Z,-1.70
2023-11-28T06:23:51.739Z,-1.45
2023-11-28T06:26:18.264Z,-1.53
2023-11-28T06:28:44.734Z,-1.40
2023-11-28T06:31:11.373Z,-1.74
2023-11-28T06:33:37.972Z,-1.98
2023-11-28T06:36:05.543Z,-1.88
2023-11-28T06:38:35.908Z,-1.62
2023-11-28T06:47:02.029Z,-1.43
2023-11-28T06:47:55.687Z,-1.73
2023-11-28T07:47:09.256Z,-1.12
2023-11-28T07:49:36.124Z,-1.41
2023-11-28T08:13:54.854Z,-1.41
2023-11-28T08:16:24.704Z,-1.59
2023-11-28T08:18:51.490Z,-1.48
2023-11-28T08:21:19.573Z,-1.74
2023-11-28T08:23:46.728Z,-1.51
2023-11-28T08:26:13.349Z,-1.41
2023-11-28T08:28:40.141Z,-1.27
2023-11-28T08:31:10.471Z,-1.37
2023-11-28T08:33:37.169Z,-1.30
2023-11-28T08:36:04.263Z,-1.02
2023-11-28T08:38:31.122Z,-1.41
2023-11-28T08:41:03.441Z,-1.29
2023-11-28T08:48:42.773Z,-1.12
2023-11-28T08:55:13.144Z,-1.08
2023-11-28T08:58:00.429Z,-1.45
2023-11-28T09:00:46.026Z,-1.59
2023-11-28T09:03:13.198Z,-1.52
2023-11-28T09:05:48.829Z,-1.50
2023-11-28T09:08:27.220Z,-1.51
2023-11-28T09:18:22.022Z,-1.21
2023-11-28T09:24:23.265Z,-1.21
2023-11-28T09:26:59.929Z,-0.99
2023-11-28T09:29:29.335Z,-1.31
2023-11-28T09:35:02.584Z,-1.15
2023-11-28T09:38:45.956Z,-0.90
2023-11-28T09:41:12.780Z,-1.36
2023-11-28T09:46:30.614Z,-1.08
2023-11-28T09:46:54.968Z,-1.08
2023-11-28T09:49:48.179Z,-1.13
2023-11-28T09:52:35.509Z,-0.64
2023-11-28T09:55:02.742Z,-0.84
2023-11-28T09:57:35.581Z,-0.71
2023-11-28T10:00:12.765Z,-0.51
2023-11-28T10:02:43.215Z,-0.49
2023-11-28T10:05:10.041Z,-0.47
2023-11-28T10:07:37.110Z,-0.46
2023-11-28T10:10:38.407Z,-0.81
2023-11-28T10:13:10.733Z,-0.97
2023-11-28T10:15:41.328Z,-0.56
2023-11-28T10:22:09.546Z,-0.68
2023-11-28T10:24:36.568Z,-0.49
2023-11-28T10:30:40.238Z,-0.54
2023-11-28T10:33:17.211Z,-1.16
2023-11-28T10:35:46.208Z,-0.58
2023-11-28T10:38:24.634Z,-1.06
2023-11-28T10:40:59.712Z,-1.33
2023-11-28T10:43:42.674Z,-0.85
2023-11-28T10:46:22.173Z,-1.21
2023-11-28T10:52:07.285Z,-1.03
2023-11-28T10:54:40.003Z,-0.97
2023-11-28T11:03:59.927Z,-0.65
2023-11-28T11:06:27.669Z,-0.97
2023-11-28T11:09:01.764Z,-0.82
2023-11-28T11:11:36.053Z,-0.61
2023-11-28T11:14:38.367Z,-0.86
2023-11-28T11:17:27.316Z,-0.75
2023-11-28T11:23:39.379Z,-0.35
2023-11-28T11:26:06.911Z,-1.03
2023-11-28T11:29:17.371Z,-1.31
2023-11-28T11:32:33.313Z,-0.85
2023-11-28T11:35:17.398Z,-1.49
2023-11-28T11:38:17.538Z,-1.09
2023-11-28T11:40:48.975Z,-0.61
2023-11-28T11:43:31.416Z,-0.63
2023-11-28T11:46:57.983Z,-0.21
2023-11-28T11:49:25.204Z,-0.43
2023-11-28T11:51:58.025Z,-0.67
2023-11-28T11:54:29.498Z,-0.97
2023-11-28T11:56:56.567Z,-0.74
2023-11-28T11:59:30.731Z,-0.46
2023-11-28T12:02:16.183Z,-0.88
2023-11-28T12:05:07.514Z,-0.48
2023-11-28T12:07:37.738Z,-0.39
2023-11-28T12:10:39.645Z,-0.54
2023-11-28T12:13:12.629Z,-0.62
2023-11-28T12:15:42.799Z,-0.40
2023-11-28T12:18:29.390Z,-0.79
2023-11-28T12:20:59.859Z,-0.60
2023-11-28T12:26:45.868Z,-0.54
2023-11-28T12:29:47.088Z,-0.21
2023-11-28T12:32:14.370Z,-0.19
2023-11-28T12:34:57.180Z,-0.30
2023-11-28T12:37:23.830Z,-0.17
2023-11-28T12:39:54.947Z,0.02
2023-11-28T12:42:21.666Z,-0.01
2023-11-28T12:44:49.807Z,-0.02
2023-11-28T12:47:16.876Z,0.11
2023-11-28T12:49:43.933Z,0.06
2023-11-28T12:52:11.709Z,-0.42
2023-11-28T12:54:52.799Z,0.06
2023-11-28T12:58:15.353Z,0.07
2023-11-28T13:00:42.452Z,-0.38
2023-11-28T13:03:09.155Z,-0.11
2023-11-28T13:05:42.303Z,0.15
2023-11-28T13:08:17.706Z,-0.54
2023-11-28T13:10:45.252Z,0.01
2023-11-28T13:13:38.327Z,0.03
2023-11-28T13:16:05.660Z,-0.14
2023-11-28T13:18:33.041Z,0.18
2023-11-28T13:21:52.314Z,0.15
2023-11-28T13:24:28.422Z,-0.46
2023-11-28T13:26:55.402Z,0.12
2023-11-28T13:29:30.720Z,0.31
2023-11-28T13:31:59.978Z,-0.02
2023-11-28T13:34:26.719Z,0.49
2023-11-28T13:36:53.504Z,0.07
2023-11-28T13:39:24.535Z,0.09
2023-11-28T13:41:57.504Z,0.25
2023-11-28T13:47:20.453Z,0.15
2023-11-28T13:47:20.821Z,0.60
2023-11-28T13:49:47.460Z,0.40
2023-11-28T13:52:14.350Z,0.17
2023-11-28T13:54:41.029Z,0.59
2023-11-28T13:57:09.005Z,0.32
2023-11-28T14:00:48.674Z,0.43
2023-11-28T14:03:46.621Z,0.39
2023-11-28T14:09:50.034Z,-0.02
2023-11-28T14:12:36.811Z,0.01
2023-11-28T14:15:04.274Z,-0.07
2023-11-28T14:17:31.227Z,-0.12
2023-11-28T14:20:07.727Z,0.04
2023-11-28T14:26:14.935Z,-0.01
2023-11-28T14:29:08.163Z,0.14
2023-11-28T14:32:07.393Z,-0.22
2023-11-28T14:34:53.901Z,0.01
2023-11-28T14:37:21.014Z,-0.19
2023-11-28T14:40:00.534Z,-0.17
2023-11-28T14:42:28.054Z,-0.10
2023-11-28T14:45:04.137Z,-0.45
2023-11-28T14:54:55.521Z,-0.52
2023-11-28T14:57:22.790Z,-0.69
2023-11-28T14:59:52.440Z,-0.89
2023-11-28T15:02:30.926Z,-0.94
2023-11-28T15:05:41.597Z,-0.94
2023-11-28T15:08:10.943Z,-1.05
2023-11-28T15:10:40.034Z,-0.79
2023-11-28T15:13:40.952Z,-0.89
2023-11-28T15:16:08.879Z,-0.98
2023-11-28T15:18:35.635Z,-1.05
2023-11-28T15:21:10.818Z,-1.06
2023-11-28T15:23:37.730Z,-1.09
2023-11-28T15:26:05.116Z,-0.99
2023-11-28T15:28:31.839Z,-0.94
2023-11-28T15:31:18.858Z,-1.08
2023-11-28T15:33:45.647Z,-1.43
2023-11-28T15:36:13.946Z,-1.17
2023-11-28T15:38:41.834Z,-1.27
2023-11-28T15:41:08.806Z,-1.26
2023-11-28T15:43:35.562Z,-1.42
2023-11-28T15:46:02.144Z,-1.29
2023-11-28T15:48:28.605Z,-0.99
2023-11-28T15:50:55.445Z,-1.36
2023-11-28T15:53:22.175Z,-1.53
2023-11-28T15:55:48.854Z,-1.41
2023-11-28T15:58:21.059Z,-1.47
2023-11-28T16:00:49.782Z,-1.52
2023-11-28T16:03:18.856Z,-1.43
2023-11-28T16:06:01.377Z,-1.29
2023-11-28T16:08:36.494Z,-1.53
2023-11-28T16:11:28.151Z,-1.38
2023-11-28T16:13:55.957Z,-1.58
2023-11-28T16:19:46.654Z,-1.75
2023-11-28T16:22:38.922Z,-1.66
2023-11-28T16:25:10.553Z,-1.55
2023-11-28T16:27:40.202Z,-1.86
2023-11-28T16:30:17.435Z,-1.73
2023-11-28T16:32:50.184Z,-1.83
2023-11-28T16:36:08.802Z,-1.55
2023-11-28T16:38:42.993Z,-2.04
2023-11-28T16:41:13.194Z,-1.91
2023-11-28T16:43:41.598Z,-1.85
2023-11-28T16:46:09.866Z,-1.78
2023-11-28T16:48:41.068Z,-1.95
2023-11-28T16:51:15.976Z,-1.87
2023-11-28T16:54:09.507Z,-1.99
2023-11-28T16:56:38.561Z,-2.01
2023-11-28T17:06:44.592Z,-2.19
2023-11-28T17:09:11.920Z,-2.16
2023-11-28T17:11:40.625Z,-1.76
2023-11-28T17:14:07.552Z,-2.04
2023-11-28T17:16:41.968Z,-2.10
2023-11-28T17:19:18.808Z,-2.23
2023-11-28T17:21:48.456Z,-1.98
2023-11-28T17:24:20.633Z,-2.06
2023-11-28T17:26:55.144Z,-2.18
2023-11-28T17:29:41.184Z,-2.44
2023-11-28T17:32:20.366Z,-2.42
2023-11-28T17:34:51.587Z,-2.11
2023-11-28T17:37:38.076Z,-2.28
2023-11-28T17:40:11.569Z,-2.36
2023-11-28T17:43:10.739Z,-2.26
2023-11-28T17:45:54.170Z,-2.32
2023-11-28T17:48:24.412Z,-2.12
2023-11-28T17:51:11.708Z,-2.36
2023-11-28T17:53:57.975Z,-2.24
2023-11-28T17:56:40.872Z,-2.35
2023-11-28T17:59:31.841Z,-2.46
2023-11-28T18:02:04.353Z,-2.38
2023-11-28T18:04:38.718Z,-2.41
2023-11-28T18:07:36.929Z,-2.38
2023-11-28T18:10:20.027Z,-2.20
2023-11-28T18:13:20.760Z,-2.69
2023-11-28T18:16:00.399Z,-2.33
2023-11-28T18:18:33.173Z,-2.48
2023-11-28T18:21:15.037Z,-2.62
2023-11-28T18:23:49.028Z,-2.63
2023-11-28T18:26:16.047Z,-2.69
2023-11-28T18:28:45.343Z,-2.63
2023-11-28T18:31:14.572Z,-2.69
2023-11-28T18:33:41.743Z,-2.62
2023-11-28T18:36:09.952Z,-2.60
2023-11-28T18:38:42.776Z,-2.45
2023-11-28T18:41:15.502Z,-2.38
2023-11-28T18:43:44.946Z,-2.35
2023-11-28T18:46:25.530Z,-2.48
2023-11-28T18:48:55.280Z,-2.47
2023-11-28T18:51:22.405Z,-2.45
2023-11-28T18:53:52.412Z,-2.77
2023-11-28T18:56:40.602Z,-2.72
2023-11-28T18:59:30.668Z,-2.50
2023-11-28T19:02:03.053Z,-2.44
2023-11-28T19:04:30.902Z,-2.37
2023-11-28T19:07:03.210Z,-2.34
2023-11-28T19:09:34.858Z,-2.29
2023-11-28T19:12:12.932Z,-2.33
2023-11-28T19:14:39.736Z,-2.27
2023-11-28T19:17:15.890Z,-2.20
2023-11-28T23:23:29.594Z,-1.04
2023-11-28T23:49:34.096Z,-1.07
2023-11-28T23:52:59.019Z,-0.91
